Tayabas, Philippines
Current Conditions -  °F | °C
As of 10:00 AM on Tuesday 23 Dec 2014 (Local Time) from RPLL Reporting Station
Scattered Clouds Scattered Clouds  
Wind Chill: 86°   Ceiling: Unl
Heat Index: 90°   Visibility: 6mi
Dew Point: 70°   Wind: 14mph
Humidity: 58%   Direction: 90°E
Pressure: 29.91"   Gusts: NA
Location:  14.03°N, 121.59°E
Report Text: RPLL 230200Z 09012KT 060V140 9999 FEW025 SCT100 30/21 Q1013 NOSIG RMK A2991
Loading
Personal Weather Stations






























Interactive Weather Map New forecast layout! Learn more

10-Day Weather Forecast

Advertisements
Track Severe Weather on mobile